createdAt,value
2018-01-07T00:01:37.349Z,5.60
2018-01-07T00:04:05.715Z,5.60
2018-01-07T00:06:34.057Z,5.50
2018-01-07T00:09:02.406Z,5.60
2018-01-07T00:11:30.755Z,5.60
2018-01-07T00:13:59.132Z,5.60
2018-01-07T00:16:28.270Z,5.60
2018-01-07T00:18:58.350Z,5.50
2018-01-07T00:21:27.389Z,5.50
2018-01-07T00:23:56.525Z,5.50
2018-01-07T00:26:25.082Z,5.50
2018-01-07T00:28:53.444Z,5.50
2018-01-07T00:31:21.793Z,5.40
2018-01-07T00:33:50.234Z,5.40
2018-01-07T00:36:18.580Z,5.30
2018-01-07T00:38:46.938Z,5.30
2018-01-07T00:41:16.069Z,5.30
2018-01-07T00:43:44.411Z,5.30
2018-01-07T00:46:13.530Z,5.30
2018-01-07T00:48:41.913Z,5.30
2018-01-07T00:51:10.250Z,5.40
2018-01-07T00:53:38.695Z,5.40
2018-01-07T00:56:07.027Z,5.40
2018-01-07T00:58:35.355Z,5.40
2018-01-07T01:01:03.730Z,5.20
2018-01-07T01:03:32.078Z,5.10
2018-01-07T01:06:00.443Z,5.10
2018-01-07T01:08:28.813Z,5.20
2018-01-07T01:10:57.182Z,5.20
2018-01-07T01:13:26.739Z,5.20
2018-01-07T01:15:55.137Z,5.20
2018-01-07T01:18:23.496Z,5.20
2018-01-07T01:20:51.849Z,5.10
2018-01-07T01:23:20.203Z,5.10
2018-01-07T01:25:48.545Z,5.20
2018-01-07T01:28:16.921Z,5.30
2018-01-07T01:30:45.236Z,5.40
2018-01-07T01:33:13.243Z,5.40
2018-01-07T01:35:42.378Z,5.30
2018-01-07T01:38:11.484Z,5.30
2018-01-07T01:40:40.605Z,5.20
2018-01-07T01:43:08.957Z,5.30
2018-01-07T01:45:37.307Z,5.20
2018-01-07T01:48:05.679Z,5.20
2018-01-07T01:50:34.032Z,5.20
2018-01-07T01:53:02.386Z,5.20
2018-01-07T01:55:30.760Z,5.20
2018-01-07T01:57:59.154Z,5.30
2018-01-07T02:00:28.259Z,5.30
2018-01-07T02:02:56.621Z,5.30
2018-01-07T02:05:25.094Z,5.30
2018-01-07T02:07:53.448Z,5.30
2018-01-07T02:10:21.817Z,5.30
2018-01-07T02:12:50.931Z,5.10
2018-01-07T02:15:19.268Z,5.20
2018-01-07T02:17:48.433Z,5.10
2018-01-07T02:20:16.767Z,5.10
2018-01-07T02:22:45.129Z,5.10
2018-01-07T02:25:14.255Z,4.90
2018-01-07T02:27:42.604Z,4.90
2018-01-07T02:30:11.724Z,4.90
2018-01-07T02:32:40.117Z,4.90
2018-01-07T02:35:08.470Z,5.00
2018-01-07T02:37:36.806Z,4.90
2018-01-07T02:40:05.155Z,4.90
2018-01-07T02:42:33.509Z,4.90
2018-01-07T02:45:01.880Z,4.90
2018-01-07T02:47:30.208Z,4.90
2018-01-07T02:49:58.359Z,4.80
2018-01-07T02:52:29.684Z,4.80
2018-01-07T02:54:58.035Z,4.80
2018-01-07T02:57:27.638Z,4.70
2018-01-07T02:59:57.493Z,4.80
2018-01-07T03:02:26.637Z,4.80
2018-01-07T03:04:56.597Z,4.70
2018-01-07T03:07:25.373Z,4.70
2018-01-07T03:09:53.742Z,4.70
2018-01-07T03:12:23.148Z,4.60
2018-01-07T03:14:51.537Z,4.60
2018-01-07T03:17:19.863Z,4.60
2018-01-07T03:19:48.967Z,4.60
2018-01-07T03:22:18.113Z,4.60
2018-01-07T03:24:46.456Z,4.50
2018-01-07T03:27:14.778Z,4.60
2018-01-07T03:29:43.154Z,4.60
2018-01-07T03:32:12.554Z,4.60
2018-01-07T03:34:40.916Z,4.50
2018-01-07T03:37:09.255Z,4.50
2018-01-07T03:39:37.625Z,4.40
2018-01-07T03:42:06.726Z,4.40
2018-01-07T03:44:35.089Z,4.40
2018-01-07T03:47:04.216Z,4.50
2018-01-07T03:49:32.565Z,4.50
2018-01-07T03:52:01.682Z,4.20
2018-01-07T03:54:30.064Z,4.10
2018-01-07T03:56:58.399Z,4.10
2018-01-07T03:59:27.941Z,4.30
2018-01-07T04:01:56.591Z,4.30
2018-01-07T04:04:26.567Z,4.30
2018-01-07T04:06:55.281Z,4.40
2018-01-07T04:09:23.637Z,4.30
2018-01-07T04:11:51.968Z,4.30
2018-01-07T04:14:20.329Z,4.40
2018-01-07T04:16:50.480Z,4.30
2018-01-07T04:19:18.836Z,4.30
2018-01-07T04:21:47.181Z,4.40
2018-01-07T04:24:15.547Z,4.30
2018-01-07T04:26:43.871Z,4.40
2018-01-07T04:29:12.243Z,4.40
2018-01-07T04:31:40.575Z,4.40
2018-01-07T04:34:08.908Z,4.40
2018-01-07T04:36:37.275Z,4.30
2018-01-07T04:39:05.267Z,4.40
2018-01-07T04:41:33.632Z,4.30
2018-01-07T04:44:01.971Z,4.30
2018-01-07T04:46:31.063Z,4.30
2018-01-07T04:49:00.201Z,4.30
2018-01-07T04:51:28.580Z,4.30
2018-01-07T04:53:57.779Z,4.20
2018-01-07T04:56:26.613Z,4.20
2018-01-07T04:58:55.273Z,4.20
2018-01-07T05:01:23.614Z,4.30
2018-01-07T05:03:51.962Z,4.30
2018-01-07T05:06:21.093Z,4.30
2018-01-07T05:08:49.433Z,4.30
2018-01-07T05:11:18.546Z,4.30
2018-01-07T05:13:46.900Z,4.30
2018-01-07T05:16:16.060Z,4.40
2018-01-07T05:18:44.405Z,4.40
2018-01-07T05:21:12.748Z,4.40
2018-01-07T05:23:41.893Z,4.50
2018-01-07T05:26:10.227Z,4.50
2018-01-07T05:28:39.337Z,4.60
2018-01-07T05:31:07.692Z,4.60
2018-01-07T05:33:36.807Z,4.60
2018-01-07T05:36:05.182Z,4.50
2018-01-07T05:38:33.522Z,4.50
2018-01-07T05:41:01.938Z,4.50
2018-01-07T05:43:30.263Z,4.50
2018-01-07T05:45:58.607Z,4.50
2018-01-07T05:48:27.813Z,4.50
2018-01-07T05:50:56.760Z,4.40
2018-01-07T05:53:26.462Z,4.50
2018-01-07T05:55:55.608Z,4.50
2018-01-07T05:58:23.927Z,4.50
2018-01-07T06:00:52.364Z,4.50
2018-01-07T06:03:20.702Z,4.50
2018-01-07T06:05:49.824Z,4.50
2018-01-07T06:08:18.201Z,4.50
2018-01-07T06:10:46.567Z,4.70
2018-01-07T06:13:14.917Z,4.60
2018-01-07T06:15:44.065Z,4.40
2018-01-07T06:18:12.424Z,4.40
2018-01-07T06:20:40.796Z,4.30
2018-01-07T06:23:09.181Z,4.20
2018-01-07T06:25:37.561Z,4.20
2018-01-07T06:28:05.901Z,4.20
2018-01-07T06:30:35.031Z,4.80
2018-01-07T06:33:03.397Z,4.70
2018-01-07T06:35:31.945Z,4.80
2018-01-07T06:38:01.098Z,4.50
2018-01-07T06:40:29.453Z,4.40
2018-01-07T06:42:58.650Z,4.30
2018-01-07T06:45:27.729Z,4.30
2018-01-07T06:47:56.668Z,4.20
2018-01-07T06:50:25.414Z,4.20
2018-01-07T06:52:53.791Z,4.30
2018-01-07T06:55:22.123Z,4.40
2018-01-07T06:57:50.464Z,4.60
2018-01-07T07:00:18.835Z,4.60
2018-01-07T07:02:47.173Z,4.70
2018-01-07T07:05:16.260Z,4.80
2018-01-07T07:07:45.394Z,4.80
2018-01-07T07:10:13.736Z,4.80
2018-01-07T07:12:42.845Z,4.70
2018-01-07T07:15:11.213Z,4.70
2018-01-07T07:17:40.311Z,4.50
2018-01-07T07:20:09.429Z,4.40
2018-01-07T07:22:37.768Z,4.40
2018-01-07T07:25:06.877Z,4.40
2018-01-07T07:27:35.688Z,4.50
2018-01-07T07:30:04.067Z,4.50
2018-01-07T07:32:32.400Z,4.60
2018-01-07T07:35:00.781Z,4.70
2018-01-07T07:37:29.887Z,4.70
2018-01-07T07:39:59.021Z,4.70
2018-01-07T07:42:27.636Z,4.70
2018-01-07T07:44:55.975Z,4.80
2018-01-07T07:47:24.339Z,4.80
2018-01-07T07:49:52.680Z,4.70
2018-01-07T07:52:21.007Z,4.70
2018-01-07T07:54:49.369Z,4.70
2018-01-07T07:57:17.708Z,4.70
2018-01-07T07:59:46.089Z,4.60
2018-01-07T08:02:15.188Z,4.60
2018-01-07T08:04:44.318Z,4.60
2018-01-07T08:07:12.685Z,4.60
2018-01-07T08:09:41.045Z,4.60
2018-01-07T08:12:10.164Z,4.50
2018-01-07T08:14:38.548Z,4.50
2018-01-07T08:17:06.879Z,4.50
2018-01-07T08:19:35.285Z,4.50
2018-01-07T08:22:03.624Z,4.50
2018-01-07T08:24:32.065Z,4.50
2018-01-07T08:27:00.385Z,4.50
2018-01-07T08:29:29.497Z,4.70
2018-01-07T08:31:58.632Z,4.60
2018-01-07T08:34:27.683Z,4.60
2018-01-07T08:36:56.785Z,4.60
2018-01-07T08:39:25.559Z,4.50
2018-01-07T08:41:54.657Z,4.50
2018-01-07T08:44:23.813Z,4.50
2018-01-07T08:46:51.944Z,4.50
2018-01-07T08:49:20.280Z,4.40
2018-01-07T08:51:48.640Z,4.30
2018-01-07T08:54:17.057Z,4.40
2018-01-07T08:56:46.161Z,4.50
2018-01-07T08:59:15.499Z,4.60
2018-01-07T09:01:43.829Z,4.50
2018-01-07T09:04:12.974Z,4.60
2018-01-07T09:06:41.313Z,4.50
2018-01-07T09:09:09.725Z,4.30
2018-01-07T09:11:38.104Z,4.30
2018-01-07T09:14:06.430Z,4.50
2018-01-07T09:16:35.537Z,4.40
2018-01-07T09:19:03.897Z,4.30
2018-01-07T09:21:33.010Z,4.30
2018-01-07T09:24:01.450Z,4.30
2018-01-07T09:26:29.793Z,4.40
2018-01-07T09:28:58.288Z,4.40
2018-01-07T09:31:27.433Z,4.50
2018-01-07T09:33:56.548Z,4.40
2018-01-07T09:36:24.896Z,4.40
2018-01-07T09:38:54.000Z,4.50
2018-01-07T09:41:22.376Z,4.50
2018-01-07T09:43:51.476Z,4.20
2018-01-07T09:46:19.826Z,4.20
2018-01-07T09:48:48.971Z,4.50
2018-01-07T09:51:17.297Z,4.50
2018-01-07T09:53:45.644Z,4.60
2018-01-07T09:56:13.999Z,4.70
2018-01-07T09:58:42.341Z,4.60
2018-01-07T10:01:11.452Z,4.50
2018-01-07T10:03:39.810Z,4.40
2018-01-07T10:06:08.927Z,4.50
2018-01-07T10:08:37.274Z,4.50
2018-01-07T10:11:06.413Z,4.50
2018-01-07T10:13:34.757Z,4.50
2018-01-07T10:16:03.878Z,4.60
2018-01-07T10:18:32.253Z,4.60
2018-01-07T10:21:00.582Z,4.50
2018-01-07T10:23:28.940Z,4.60
2018-01-07T10:25:58.281Z,4.30
2018-01-07T10:28:28.000Z,4.40
2018-01-07T10:30:56.422Z,4.40
2018-01-07T10:33:24.785Z,4.50
2018-01-07T10:35:53.139Z,4.60
2018-01-07T10:38:21.490Z,4.60
2018-01-07T10:40:50.657Z,4.70
2018-01-07T10:43:19.002Z,4.70
2018-01-07T10:45:47.348Z,4.60
2018-01-07T10:48:16.485Z,4.50
2018-01-07T10:50:44.825Z,4.50
2018-01-07T10:53:13.179Z,4.70
2018-01-07T10:55:42.284Z,4.70
2018-01-07T10:58:11.138Z,4.70
2018-01-07T11:00:45.036Z,4.60
2018-01-07T11:03:14.190Z,4.50
2018-01-07T11:05:44.224Z,4.50
2018-01-07T11:08:12.568Z,4.60
2018-01-07T11:10:41.683Z,4.70
2018-01-07T11:13:10.061Z,4.60
2018-01-07T11:15:38.405Z,4.70
2018-01-07T11:18:06.773Z,4.60
2018-01-07T11:20:35.138Z,4.80
2018-01-07T11:23:03.494Z,4.80
2018-01-07T11:25:32.625Z,4.50
2018-01-07T11:28:00.959Z,4.50
2018-01-07T11:30:30.084Z,4.50
2018-01-07T11:32:58.417Z,4.50
2018-01-07T11:35:26.917Z,4.50
2018-01-07T11:37:55.528Z,4.50
2018-01-07T11:40:23.865Z,4.70
2018-01-07T11:42:52.228Z,4.60
2018-01-07T11:45:20.566Z,4.60
2018-01-07T11:47:48.962Z,4.40
2018-01-07T11:50:18.071Z,4.60
2018-01-07T11:52:46.409Z,4.60
2018-01-07T11:57:55.844Z,4.60
2018-01-07T12:00:24.198Z,4.70
2018-01-07T12:02:52.540Z,4.60
2018-01-07T12:05:20.880Z,4.70
2018-01-07T12:07:49.249Z,4.70
2018-01-07T12:10:17.594Z,4.80
2018-01-07T12:12:45.940Z,4.70
2018-01-07T12:15:15.064Z,4.60
2018-01-07T12:17:43.428Z,4.60
2018-01-07T12:20:11.763Z,4.50
2018-01-07T12:22:40.125Z,4.50
2018-01-07T12:25:08.485Z,4.70
2018-01-07T12:27:37.609Z,4.70
2018-01-07T12:30:05.939Z,4.70
2018-01-07T12:32:34.300Z,4.70
2018-01-07T12:35:02.658Z,4.60
2018-01-07T12:37:31.776Z,4.70
2018-01-07T12:40:00.158Z,4.70
2018-01-07T12:42:28.496Z,4.70
2018-01-07T12:44:57.592Z,4.70
2018-01-07T12:47:27.752Z,4.60
2018-01-07T12:49:56.539Z,4.50
2018-01-07T12:52:24.901Z,4.50
2018-01-07T12:54:53.262Z,4.50
2018-01-07T12:57:22.368Z,4.60
2018-01-07T12:59:50.740Z,4.60
2018-01-07T13:02:19.085Z,4.60
2018-01-07T13:04:47.453Z,4.80
2018-01-07T13:07:15.818Z,4.80
2018-01-07T13:09:44.163Z,4.80
2018-01-07T13:12:12.515Z,4.90
2018-01-07T13:14:41.628Z,4.50
2018-01-07T13:17:10.016Z,4.50
2018-01-07T13:19:38.346Z,4.70
2018-01-07T13:22:06.699Z,4.50
2018-01-07T13:24:35.584Z,4.60
2018-01-07T13:29:55.078Z,4.70
2018-01-07T13:32:23.410Z,4.80
2018-01-07T13:34:51.756Z,4.90
2018-01-07T13:37:20.882Z,4.70
2018-01-07T13:39:49.225Z,4.70
2018-01-07T13:42:18.359Z,4.70
2018-01-07T13:44:46.705Z,4.70
2018-01-07T13:47:15.823Z,4.80
2018-01-07T13:49:44.180Z,4.80
2018-01-07T13:52:13.290Z,4.80
2018-01-07T13:54:41.646Z,4.80
2018-01-07T13:57:10.755Z,4.80
2018-01-07T13:59:39.102Z,4.80
2018-01-07T14:02:07.464Z,4.90
2018-01-07T14:04:36.557Z,4.90
2018-01-07T14:07:04.886Z,4.90
2018-01-07T14:09:33.258Z,5.00
2018-01-07T14:12:01.614Z,4.80
2018-01-07T14:14:30.712Z,4.90
2018-01-07T14:16:59.841Z,4.90
2018-01-07T14:19:28.964Z,4.80
2018-01-07T14:21:57.997Z,4.80
2018-01-07T14:24:27.110Z,4.90
2018-01-07T14:26:55.696Z,4.90
2018-01-07T14:29:24.052Z,4.70
2018-01-07T14:31:53.170Z,4.70
2018-01-07T14:34:21.534Z,4.70
2018-01-07T14:36:49.551Z,4.80
2018-01-07T14:39:17.556Z,4.90
2018-01-07T14:41:46.699Z,4.90
2018-01-07T14:44:15.039Z,4.90
2018-01-07T14:46:43.380Z,4.80
2018-01-07T14:49:11.739Z,4.80
2018-01-07T14:51:40.065Z,4.90
2018-01-07T14:54:08.390Z,4.80
2018-01-07T14:56:36.744Z,4.80
2018-01-07T14:59:05.090Z,4.70
2018-01-07T15:01:34.220Z,4.80
2018-01-07T15:04:02.564Z,4.70
2018-01-07T15:06:30.899Z,4.80
2018-01-07T15:08:59.256Z,4.90
2018-01-07T15:11:28.696Z,4.80
2018-01-07T15:13:57.044Z,4.80
2018-01-07T15:16:25.797Z,4.80
2018-01-07T15:18:54.132Z,4.70
2018-01-07T15:21:22.485Z,4.70
2018-01-07T15:23:50.825Z,4.80
2018-01-07T15:26:19.197Z,4.70
2018-01-07T15:28:47.541Z,4.70
2018-01-07T15:31:15.882Z,4.80
2018-01-07T15:33:44.228Z,4.70
2018-01-07T15:36:12.567Z,4.80
2018-01-07T15:38:40.911Z,4.70
2018-01-07T15:41:09.246Z,4.70
2018-01-07T15:43:37.603Z,4.60
2018-01-07T15:46:05.927Z,4.50
2018-01-07T15:48:35.036Z,4.60
2018-01-07T15:51:03.385Z,4.50
2018-01-07T15:53:31.730Z,4.60
2018-01-07T15:56:00.073Z,4.50
2018-01-07T15:58:28.436Z,4.60
2018-01-07T16:00:58.100Z,4.50
2018-01-07T16:03:27.046Z,4.50
2018-01-07T16:05:55.787Z,4.60
2018-01-07T16:08:24.193Z,4.50
2018-01-07T16:10:53.289Z,4.50
2018-01-07T16:13:22.414Z,4.50
2018-01-07T16:15:50.762Z,4.40
2018-01-07T16:18:19.851Z,4.50
2018-01-07T16:20:48.991Z,4.50
2018-01-07T16:23:17.324Z,4.50
2018-01-07T16:25:46.423Z,4.60
2018-01-07T16:28:14.795Z,4.60
2018-01-07T16:30:43.901Z,4.60
2018-01-07T16:33:12.228Z,4.50
2018-01-07T16:35:40.597Z,4.50
2018-01-07T16:38:08.959Z,4.60
2018-01-07T16:40:37.364Z,4.50
2018-01-07T16:43:05.709Z,4.50
2018-01-07T16:45:34.053Z,2.60
2018-01-07T16:48:03.174Z,4.40
2018-01-07T16:50:31.520Z,4.40
2018-01-07T16:53:00.653Z,4.40
2018-01-07T16:55:29.010Z,4.40
2018-01-07T16:57:58.057Z,4.30
2018-01-07T17:00:27.171Z,4.30
2018-01-07T17:02:57.150Z,4.30
2018-01-07T17:05:25.736Z,4.30
2018-01-07T17:07:54.068Z,4.40
2018-01-07T17:10:22.401Z,4.30
2018-01-07T17:12:50.786Z,4.40
2018-01-07T17:15:19.920Z,4.40
2018-01-07T17:17:48.254Z,4.40
2018-01-07T17:20:16.621Z,4.40
2018-01-07T17:22:44.975Z,4.40
2018-01-07T17:25:13.326Z,4.40
2018-01-07T17:27:41.655Z,4.40
2018-01-07T17:30:09.996Z,4.40
2018-01-07T17:32:38.337Z,4.40
2018-01-07T17:35:06.669Z,4.40
2018-01-07T17:37:35.011Z,4.30
2018-01-07T17:40:03.353Z,4.40
2018-01-07T17:42:32.464Z,4.40
2018-01-07T17:45:00.851Z,4.40
2018-01-07T17:47:29.208Z,4.30
2018-01-07T17:49:58.513Z,4.30
2018-01-07T17:52:26.892Z,4.30
2018-01-07T17:54:55.224Z,4.30
2018-01-07T17:57:23.577Z,4.30
2018-01-07T17:59:51.917Z,4.40
2018-01-07T18:02:21.012Z,4.40
2018-01-07T18:04:49.409Z,4.30
2018-01-07T18:07:17.749Z,4.30
2018-01-07T18:09:46.093Z,4.40
2018-01-07T18:12:14.429Z,4.40
2018-01-07T18:14:42.790Z,4.40
2018-01-07T18:17:11.150Z,4.40
2018-01-07T18:19:40.276Z,4.40
2018-01-07T18:22:08.634Z,4.40
2018-01-07T18:24:38.076Z,4.40
2018-01-07T18:27:06.424Z,4.40
2018-01-07T18:29:34.829Z,4.40
2018-01-07T18:32:03.252Z,4.40
2018-01-07T18:34:31.618Z,4.40
2018-01-07T18:37:00.022Z,4.40
2018-01-07T18:39:29.211Z,2.80
2018-01-07T18:41:59.316Z,4.40
2018-01-07T18:44:28.068Z,4.40
2018-01-07T18:46:57.105Z,4.40
2018-01-07T18:49:25.729Z,4.50
2018-01-07T18:51:54.086Z,4.50
2018-01-07T18:54:22.461Z,4.40
2018-01-07T18:56:51.130Z,4.40
2018-01-07T18:59:19.542Z,4.40
2018-01-07T19:01:48.010Z,4.40
2018-01-07T19:04:16.435Z,4.40
2018-01-07T19:06:44.846Z,4.50
2018-01-07T19:09:13.022Z,4.50
2018-01-07T19:11:42.161Z,4.40
2018-01-07T19:14:10.487Z,4.40
2018-01-07T19:16:39.616Z,4.40
2018-01-07T19:19:07.996Z,4.40
2018-01-07T19:21:36.322Z,4.50
2018-01-07T19:24:05.213Z,4.40
2018-01-07T19:26:34.539Z,4.50
2018-01-07T19:29:03.657Z,4.40
2018-01-07T19:31:32.436Z,4.50
2018-01-07T19:34:01.103Z,4.50
2018-01-07T19:36:29.808Z,4.50
2018-01-07T19:38:59.494Z,4.50
2018-01-07T19:41:28.359Z,4.40
2018-01-07T19:43:56.924Z,4.50
2018-01-07T19:46:25.390Z,4.50
2018-01-07T19:48:53.916Z,4.50
2018-01-07T19:51:22.768Z,4.50
2018-01-07T19:53:52.560Z,4.50
2018-01-07T19:56:22.185Z,4.50
2018-01-07T19:58:51.707Z,4.50
2018-01-07T20:01:21.486Z,4.50
2018-01-07T20:03:51.030Z,4.50
2018-01-07T20:06:19.632Z,4.50
2018-01-07T20:08:48.258Z,4.60
2018-01-07T20:11:17.184Z,4.60
2018-01-07T20:13:45.733Z,4.50
2018-01-07T20:16:15.313Z,4.60
2018-01-07T20:18:43.787Z,4.60
2018-01-07T20:21:12.702Z,4.60
2018-01-07T20:23:41.508Z,4.60
2018-01-07T20:26:10.334Z,4.60
2018-01-07T20:28:39.179Z,4.60
2018-01-07T20:31:07.897Z,4.60
2018-01-07T20:33:36.651Z,4.60
2018-01-07T20:36:06.222Z,4.60
2018-01-07T20:38:35.088Z,4.60
2018-01-07T20:41:04.042Z,4.60
2018-01-07T20:43:32.821Z,4.60
2018-01-07T20:46:01.708Z,4.60
2018-01-07T20:48:31.270Z,4.60
2018-01-07T20:51:00.841Z,4.60
2018-01-07T20:53:29.730Z,4.60
2018-01-07T20:55:59.582Z,4.60
2018-01-07T20:58:28.399Z,4.60
2018-01-07T21:00:58.048Z,4.60
2018-01-07T21:03:26.894Z,4.60
2018-01-07T21:05:57.243Z,4.70
2018-01-07T21:08:30.387Z,4.70
2018-01-07T21:10:59.042Z,4.70
2018-01-07T21:13:28.389Z,4.60
2018-01-07T21:15:57.417Z,4.70
2018-01-07T21:18:27.555Z,4.70
2018-01-07T21:20:56.258Z,4.70
2018-01-07T21:23:24.906Z,4.70
2018-01-07T21:25:53.456Z,4.70
2018-01-07T21:28:23.096Z,4.70
2018-01-07T21:30:51.505Z,4.70
2018-01-07T21:33:19.949Z,4.70
2018-01-07T21:35:49.156Z,4.70
2018-01-07T21:38:17.769Z,4.70
2018-01-07T21:40:46.406Z,4.70
2018-01-07T21:43:15.593Z,4.70
2018-01-07T21:45:44.108Z,4.70
2018-01-07T21:48:12.523Z,4.70
2018-01-07T21:50:41.096Z,4.70
2018-01-07T21:53:09.582Z,4.70
2018-01-07T21:55:37.932Z,4.70
2018-01-07T21:58:06.279Z,4.80
2018-01-07T22:03:53.005Z,4.70
2018-01-07T22:06:33.310Z,4.70
2018-01-07T22:09:01.688Z,4.60
2018-01-07T22:11:30.085Z,4.60
2018-01-07T22:13:59.302Z,4.60
2018-01-07T22:16:28.817Z,4.70
2018-01-07T22:18:58.768Z,4.70
2018-01-07T22:21:27.920Z,4.70
2018-01-07T22:23:57.049Z,4.70
2018-01-07T22:26:25.474Z,4.70
2018-01-07T22:28:53.833Z,4.70
2018-01-07T22:31:22.203Z,4.70
2018-01-07T22:33:50.534Z,4.70
2018-01-07T22:36:18.898Z,4.70
2018-01-07T22:38:47.828Z,4.70
2018-01-07T22:41:16.258Z,4.70
2018-01-07T22:43:44.602Z,4.70
2018-01-07T22:46:13.002Z,4.70
2018-01-07T22:48:41.334Z,4.70
2018-01-07T22:51:09.823Z,4.70
2018-01-07T22:53:38.156Z,4.70
2018-01-07T22:56:07.343Z,4.80
2018-01-07T22:58:35.690Z,4.80
2018-01-07T23:01:04.076Z,4.70
2018-01-07T23:03:32.441Z,4.70
2018-01-07T23:06:00.905Z,4.70
2018-01-07T23:08:29.249Z,4.80
2018-01-07T23:10:58.833Z,4.70
2018-01-07T23:13:28.129Z,4.70
2018-01-07T23:15:56.649Z,4.70
2018-01-07T23:18:24.989Z,4.70
2018-01-07T23:20:53.354Z,4.70
2018-01-07T23:23:21.701Z,4.70
2018-01-07T23:25:50.040Z,4.80
2018-01-07T23:28:18.375Z,4.70
2018-01-07T23:30:46.758Z,4.70
2018-01-07T23:33:15.117Z,4.70
2018-01-07T23:35:43.594Z,4.70
2018-01-07T23:38:11.922Z,4.70
2018-01-07T23:40:41.039Z,4.70
2018-01-07T23:43:09.377Z,4.70
2018-01-07T23:45:38.578Z,4.70
2018-01-07T23:48:07.679Z,4.70
2018-01-07T23:50:36.792Z,4.70
2018-01-07T23:53:05.145Z,4.70
2018-01-07T23:55:34.317Z,4.70
2018-01-07T23:58:02.668Z,4.60
